Time;durP1;ratioP1;P1;durP2;ratioP2;P2;SDS_P1;SDS_P2;PMS_P1;PMS_P2;Temp;Humidity;BMP_temperature;BMP_pressure;BME280_temperature;BME280_humidity;BME280_pressure;Samples;Min_cycle;Max_cycle;Signal;HPM_P1;HPM_P2
2021/12/10 00:00:39;;;;;;;51.78;28.80;;;5.30;99.90;;;;;;5031604;28;20131;-86
2021/12/10 00:03:08;;;;;;;61.83;29.13;;;4.50;99.90;;;;;;5014026;28;20045;-83
2021/12/10 00:05:39;;;;;;;49.40;27.23;;;4.50;99.90;;;;;;5048818;28;20103;-83
2021/12/10 00:08:08;;;;;;;58.63;28.05;;;5.20;99.90;;;;;;5027406;28;20052;-87
2021/12/10 00:10:38;;;;;;;47.83;28.08;;;4.50;99.90;;;;;;5031527;28;20153;-85
2021/12/10 00:13:05;;;;;;;47.47;26.98;;;4.70;99.90;;;;;;5046402;28;20436;-81
2021/12/10 00:15:32;;;;;;;53.15;27.30;;;4.80;99.90;;;;;;5042219;28;20049;-85
2021/12/10 00:18:00;;;;;;;47.03;27.42;;;4.50;99.90;;;;;;5008531;28;20049;-87
2021/12/10 00:20:28;;;;;;;45.10;25.10;;;5.10;99.90;;;;;;5025921;28;20043;-85
2021/12/10 00:22:59;;;;;;;41.88;24.90;;;4.80;99.90;;;;;;5009304;28;20364;-87
2021/12/10 00:25:35;;;;;;;53.90;24.30;;;4.40;99.90;;;;;;5027421;28;20049;-87
2021/12/10 00:28:13;;;;;;;49.28;22.80;;;4.50;99.90;;;;;;5045368;28;20047;-85
2021/12/10 00:30:48;;;;;;;48.17;25.17;;;4.50;99.90;;;;;;5028997;28;20064;-85
2021/12/10 00:33:20;;;;;;;47.88;25.17;;;4.50;99.90;;;;;;5031090;28;20037;-83
2021/12/10 00:35:47;;;;;;;53.53;24.77;;;4.50;99.90;;;;;;5012042;28;20041;-84
2021/12/10 00:38:14;;;;;;;36.80;22.48;;;5.30;99.90;;;;;;5011679;28;20037;-85
2021/12/10 00:40:40;;;;;;;43.75;24.45;;;4.50;99.90;;;;;;5016370;28;20041;-86
2021/12/10 00:43:06;;;;;;;42.50;24.30;;;4.50;99.90;;;;;;5023951;28;20099;-85
2021/12/10 00:45:32;;;;;;;48.40;24.20;;;5.00;99.90;;;;;;5031862;28;20064;-84
2021/12/10 00:47:58;;;;;;;36.83;23.40;;;5.20;99.90;;;;;;5017461;28;20437;-83
2021/12/10 00:50:29;;;;;;;53.00;22.92;;;5.20;99.90;;;;;;5027766;28;20134;-87
2021/12/10 00:52:55;;;;;;;46.05;24.02;;;5.10;99.90;;;;;;5019953;28;20120;-83
2021/12/10 00:55:23;;;;;;;42.42;22.65;;;4.50;99.90;;;;;;5009805;28;20052;-83
2021/12/10 00:57:49;;;;;;;39.92;21.48;;;4.60;99.90;;;;;;5027422;28;20397;-83
2021/12/10 01:00:22;;;;;;;36.33;20.95;;;4.50;99.90;;;;;;5015354;28;20053;-85
2021/12/10 01:02:49;;;;;;;40.95;22.25;;;5.30;99.90;;;;;;5029833;28;20540;-81
2021/12/10 01:05:17;;;;;;;39.17;21.02;;;5.10;99.90;;;;;;5029994;28;20076;-84
2021/12/10 01:07:44;;;;;;;40.40;21.20;;;4.50;99.90;;;;;;5035475;28;20052;-87
2021/12/10 01:10:19;;;;;;;38.20;21.65;;;4.50;99.90;;;;;;5051736;28;20053;-88
2021/12/10 01:12:48;;;;;;;38.60;21.30;;;5.30;99.90;;;;;;5013154;28;20033;-87
2021/12/10 01:28:45;;;;;;;38.53;20.63;;;5.30;99.90;;;;;;5032832;28;20163;-87
2021/12/10 01:31:11;;;;;;;35.78;21.30;;;4.80;99.90;;;;;;5015421;28;20036;-87
2021/12/10 01:33:37;;;;;;;38.25;20.92;;;4.60;99.90;;;;;;5033408;28;20095;-87
2021/12/10 01:36:07;;;;;;;45.22;21.95;;;4.80;99.90;;;;;;5017421;28;20052;-83
2021/12/10 01:38:34;;;;;;;35.13;20.42;;;5.30;99.90;;;;;;5017498;28;20437;-87
2021/12/10 01:41:01;;;;;;;38.60;20.48;;;5.30;99.90;;;;;;5045219;28;20055;-86
2021/12/10 01:43:32;;;;;;;43.38;20.73;;;5.10;99.90;;;;;;5011265;28;20116;-86
2021/12/10 01:46:07;;;;;;;41.72;19.13;;;5.10;99.90;;;;;;5014288;28;20075;-85
2021/12/10 01:48:48;;;;;;;33.47;17.98;;;5.00;99.90;;;;;;5015450;28;20037;-88
2021/12/10 01:51:18;;;;;;;37.35;18.17;;;4.60;99.90;;;;;;5015080;28;20056;-86
2021/12/10 01:53:46;;;;;;;32.28;17.50;;;4.50;99.90;;;;;;5034191;28;20200;-87
2021/12/10 01:56:19;;;;;;;34.17;17.95;;;5.20;99.90;;;;;;5032553;28;20033;-87
2021/12/10 01:58:46;;;;;;;33.80;17.45;;;4.60;99.90;;;;;;5047238;28;20493;-86
2021/12/10 02:01:22;;;;;;;38.83;17.15;;;5.20;99.90;;;;;;5056226;28;20048;-86
2021/12/10 02:03:49;;;;;;;35.22;16.60;;;4.50;99.90;;;;;;5030488;28;20369;-89
2021/12/10 02:06:52;;;;;;;31.00;15.20;;;5.20;99.90;;;;;;5013407;28;20095;-89
2021/12/10 02:09:18;;;;;;;28.42;12.73;;;4.50;99.90;;;;;;5029463;28;20060;-85
2021/12/10 02:11:45;;;;;;;32.28;13.43;;;5.10;99.90;;;;;;5028664;28;20033;-85
2021/12/10 02:14:11;;;;;;;29.80;13.82;;;4.60;99.90;;;;;;5027224;28;20037;-84
2021/12/10 02:16:38;;;;;;;30.20;13.20;;;5.20;99.90;;;;;;4994705;28;20051;-86
2021/12/10 02:19:06;;;;;;;31.35;13.13;;;4.40;99.90;;;;;;4994543;28;20039;-85
2021/12/10 02:21:34;;;;;;;26.85;12.98;;;5.00;99.90;;;;;;5010804;28;20091;-86
2021/12/10 02:24:02;;;;;;;38.38;13.85;;;4.40;99.90;;;;;;5008760;28;20128;-87
2021/12/10 02:26:34;;;;;;;30.50;14.35;;;4.40;99.90;;;;;;5028316;28;20037;-84
2021/12/10 02:29:02;;;;;;;30.33;14.30;;;5.00;99.90;;;;;;5009672;28;20087;-84
2021/12/10 02:31:28;;;;;;;34.30;14.43;;;4.80;99.90;;;;;;5011639;28;20041;-85
2021/12/10 02:33:55;;;;;;;28.92;13.70;;;4.70;99.90;;;;;;5011843;28;20563;-86
2021/12/10 02:36:22;;;;;;;37.10;14.93;;;4.60;99.90;;;;;;5012144;28;20124;-83
2021/12/10 02:38:51;;;;;;;37.42;14.95;;;4.40;99.90;;;;;;5010029;28;20045;-83
2021/12/10 02:41:19;;;;;;;37.65;15.45;;;4.50;99.90;;;;;;5007645;28;20048;-84
2021/12/10 02:43:46;;;;;;;31.15;13.45;;;4.40;99.90;;;;;;5004370;28;20120;-88
2021/12/10 02:46:12;;;;;;;31.75;14.50;;;4.40;99.90;;;;;;4989520;28;20137;-83
2021/12/10 02:48:38;;;;;;;29.30;13.25;;;4.60;99.90;;;;;;5027161;28;20038;-87
2021/12/10 02:51:07;;;;;;;30.13;13.40;;;4.80;99.90;;;;;;5011996;28;20042;-86
2021/12/10 02:53:38;;;;;;;28.10;12.77;;;5.20;99.90;;;;;;5009089;28;20036;-87
2021/12/10 02:56:04;;;;;;;27.75;12.52;;;4.50;99.90;;;;;;5010106;28;20041;-84
2021/12/10 02:58:30;;;;;;;28.65;14.35;;;4.30;99.90;;;;;;4985189;28;20049;-87
2021/12/10 03:01:24;;;;;;;30.52;13.70;;;4.70;99.90;;;;;;5013721;28;20120;-82
2021/12/10 03:03:50;;;;;;;30.13;13.50;;;4.90;99.90;;;;;;4945450;28;20058;-89
2021/12/10 03:06:17;;;;;;;31.67;14.77;;;4.30;99.90;;;;;;4941874;28;20413;-84
2021/12/10 03:08:46;;;;;;;33.03;13.93;;;4.50;99.90;;;;;;4947522;28;20051;-86
2021/12/10 03:11:16;;;;;;;31.20;14.30;;;4.30;99.90;;;;;;4967647;28;20474;-85
2021/12/10 03:13:42;;;;;;;34.45;14.85;;;4.30;99.90;;;;;;4942738;28;20930;-90
2021/12/10 03:16:08;;;;;;;27.35;13.90;;;4.60;99.90;;;;;;4948958;28;20039;-86
2021/12/10 03:18:36;;;;;;;27.48;13.77;;;4.30;99.90;;;;;;4934870;28;20371;-85
2021/12/10 03:21:04;;;;;;;28.67;14.88;;;5.20;99.90;;;;;;4931747;29;20586;-89
2021/12/10 03:23:30;;;;;;;31.63;15.63;;;4.30;99.90;;;;;;4945026;28;20235;-86
2021/12/10 03:25:55;;;;;;;33.45;15.88;;;4.30;99.90;;;;;;4934194;28;20121;-85
2021/12/10 03:28:21;;;;;;;35.30;15.77;;;4.30;99.90;;;;;;4944555;28;20514;-85
2021/12/10 03:30:51;;;;;;;31.80;16.27;;;5.00;99.90;;;;;;4967020;28;20038;-82
2021/12/10 03:33:17;;;;;;;33.55;16.02;;;4.90;99.90;;;;;;4923217;28;20094;-89
2021/12/10 03:35:47;;;;;;;36.67;16.13;;;5.10;99.90;;;;;;4953631;28;20470;-85
2021/12/10 03:38:17;;;;;;;31.10;16.33;;;4.80;99.90;;;;;;4942546;28;20054;-83
2021/12/10 03:40:44;;;;;;;29.48;13.85;;;4.30;99.90;;;;;;4987684;28;20067;-86
2021/12/10 03:43:11;;;;;;;29.98;15.80;;;4.30;99.90;;;;;;5044078;28;20376;-86
2021/12/10 03:45:40;;;;;;;34.58;16.98;;;4.30;99.90;;;;;;5033638;28;20044;-88
2021/12/10 03:48:15;;;;;;;32.58;16.50;;;4.70;99.90;;;;;;5029071;28;20037;-87
2021/12/10 03:50:44;;;;;;;29.70;14.55;;;4.60;99.90;;;;;;5031900;28;20040;-83
2021/12/10 03:53:10;;;;;;;34.45;15.05;;;4.60;99.90;;;;;;5026225;28;20041;-85
2021/12/10 03:55:36;;;;;;;34.65;14.85;;;5.00;99.90;;;;;;5031870;28;20480;-86
2021/12/10 03:58:02;;;;;;;28.50;14.95;;;4.20;99.90;;;;;;5011416;28;20057;-84
2021/12/10 04:00:32;;;;;;;31.92;14.80;;;5.10;99.90;;;;;;5032097;28;20037;-83
2021/12/10 04:02:59;;;;;;;28.15;15.25;;;4.30;99.90;;;;;;5028391;28;20103;-84
2021/12/10 04:05:25;;;;;;;32.42;15.23;;;5.10;99.90;;;;;;5047883;28;20110;-85
2021/12/10 04:07:52;;;;;;;30.40;14.70;;;4.20;99.90;;;;;;5026687;28;20052;-83
2021/12/10 04:10:19;;;;;;;32.53;14.82;;;4.50;99.90;;;;;;5033256;28;20043;-88
2021/12/10 04:12:45;;;;;;;29.65;15.10;;;4.20;99.90;;;;;;5021509;28;20040;-86
2021/12/10 04:15:13;;;;;;;30.88;15.73;;;4.30;99.90;;;;;;5036360;28;20456;-89
2021/12/10 04:17:39;;;;;;;26.85;15.63;;;4.80;99.90;;;;;;5001327;28;20510;-87
2021/12/10 04:20:16;;;;;;;30.50;15.77;;;4.90;99.90;;;;;;5014495;28;20041;-87
2021/12/10 04:22:46;;;;;;;28.45;14.82;;;4.90;99.90;;;;;;5032356;28;20029;-85
2021/12/10 04:25:16;;;;;;;36.58;17.35;;;4.80;99.90;;;;;;5017237;28;21547;-86
2021/12/10 04:27:43;;;;;;;32.42;17.00;;;4.20;99.90;;;;;;5013533;28;20041;-88
2021/12/10 04:30:12;;;;;;;36.28;17.50;;;5.00;99.90;;;;;;5026678;28;20120;-85
2021/12/10 04:32:38;;;;;;;38.45;18.50;;;4.20;99.90;;;;;;5045356;28;20073;-84
2021/12/10 04:35:04;;;;;;;36.88;17.67;;;4.70;99.90;;;;;;5026463;28;20049;-83
2021/12/10 04:37:30;;;;;;;28.95;17.52;;;4.20;99.90;;;;;;5031043;28;20045;-86
2021/12/10 04:39:55;;;;;;;34.60;18.50;;;4.20;99.90;;;;;;5031934;28;20041;-83
2021/12/10 04:42:24;;;;;;;28.55;17.58;;;4.60;99.90;;;;;;5013795;28;20345;-85
2021/12/10 04:44:55;;;;;;;35.35;17.85;;;4.10;99.90;;;;;;5046817;28;20345;-85
2021/12/10 04:47:21;;;;;;;30.08;17.45;;;4.10;99.90;;;;;;5025706;28;20090;-84
2021/12/10 04:49:47;;;;;;;27.98;18.05;;;4.10;99.90;;;;;;5032355;28;20461;-83
2021/12/10 04:52:14;;;;;;;31.30;17.30;;;4.90;99.90;;;;;;5008923;28;20533;-88
2021/12/10 04:54:40;;;;;;;27.77;17.58;;;3.90;99.90;;;;;;5009935;28;20053;-85
2021/12/10 04:57:06;;;;;;;26.05;18.00;;;3.80;99.90;;;;;;5007584;28;21673;-87
2021/12/10 04:59:34;;;;;;;28.73;18.08;;;3.70;99.90;;;;;;4989397;28;20039;-88
2021/12/10 05:02:02;;;;;;;29.50;18.55;;;4.50;99.90;;;;;;5006559;28;20390;-86
2021/12/10 05:04:29;;;;;;;30.15;19.15;;;3.60;99.90;;;;;;5006846;28;20116;-84
2021/12/10 05:07:30;;;;;;;35.55;20.58;;;3.50;99.90;;;;;;5010018;28;20049;-86
2021/12/10 05:09:57;;;;;;;35.10;19.90;;;3.40;99.90;;;;;;4972169;28;20440;-86
2021/12/10 05:12:26;;;;;;;37.80;21.77;;;3.40;99.90;;;;;;5005289;28;20211;-86
2021/12/10 05:14:58;;;;;;;34.25;21.15;;;3.30;99.90;;;;;;4990365;28;20042;-88
2021/12/10 05:17:27;;;;;;;32.65;20.00;;;3.80;99.90;;;;;;4986004;28;20054;-88
2021/12/10 05:19:53;;;;;;;35.25;20.75;;;4.10;99.90;;;;;;5006905;28;20054;-84
2021/12/10 05:22:19;;;;;;;29.13;20.23;;;3.20;99.90;;;;;;5006406;28;20046;-84
2021/12/10 05:24:44;;;;;;;29.60;18.92;;;3.60;99.90;;;;;;5006287;28;20410;-86
2021/12/10 05:27:10;;;;;;;34.45;20.10;;;3.10;99.90;;;;;;4990154;28;20212;-86
2021/12/10 05:29:36;;;;;;;29.48;18.60;;;3.60;99.90;;;;;;4988056;28;20040;-85
2021/12/10 05:32:04;;;;;;;33.28;19.85;;;3.00;99.90;;;;;;5003415;28;20122;-83
2021/12/10 05:34:30;;;;;;;31.10;19.58;;;3.00;99.90;;;;;;4990474;28;20038;-85
2021/12/10 05:36:57;;;;;;;33.45;18.75;;;3.00;99.90;;;;;;5003853;28;20049;-84
2021/12/10 05:39:23;;;;;;;37.10;20.08;;;3.00;99.90;;;;;;5006108;28;20338;-87
2021/12/10 05:41:52;;;;;;;28.70;18.98;;;3.60;99.90;;;;;;4972062;28;20080;-86
2021/12/10 05:44:18;;;;;;;33.70;19.92;;;3.00;99.90;;;;;;5003615;28;20429;-87
2021/12/10 05:47:49;;;;;;;;;;;;;;;;;;;;;
2021/12/10 05:50:27;;;;;;;32.60;19.60;;;3.10;99.90;;;;;;4965712;28;20514;-86
2021/12/10 05:52:52;;;;;;;34.25;18.85;;;3.90;99.90;;;;;;4937831;28;20550;-87
2021/12/10 05:55:19;;;;;;;35.85;19.77;;;2.90;99.90;;;;;;4941309;28;20043;-84
2021/12/10 05:57:47;;;;;;;39.00;19.20;;;3.60;99.90;;;;;;4954788;28;20138;-85
2021/12/10 06:00:32;;;;;;;35.58;20.23;;;3.60;99.90;;;;;;4968530;28;20503;-86
2021/12/10 06:03:01;;;;;;;35.83;21.33;;;2.90;99.90;;;;;;4954511;28;20046;-84
2021/12/10 06:05:30;;;;;;;37.38;21.75;;;3.90;99.90;;;;;;4970938;28;20093;-86
2021/12/10 06:07:55;;;;;;;39.38;21.63;;;2.90;99.90;;;;;;4955503;28;20157;-87
2021/12/10 06:10:38;;;;;;;39.05;20.63;;;3.50;99.90;;;;;;4953985;28;20145;-83
2021/12/10 06:13:04;;;;;;;37.03;22.02;;;2.90;99.90;;;;;;4953140;28;20050;-83
2021/12/10 06:15:30;;;;;;;37.90;22.95;;;3.30;99.90;;;;;;4937436;28;20034;-83
2021/12/10 06:17:57;;;;;;;36.90;21.77;;;3.30;99.90;;;;;;4954016;28;20142;-80
2021/12/10 06:20:29;;;;;;;38.83;22.27;;;2.90;99.90;;;;;;4936232;28;20050;-85
2021/12/10 06:22:57;;;;;;;33.20;21.02;;;2.90;99.90;;;;;;4954611;28;20122;-79
2021/12/10 06:25:23;;;;;;;36.60;22.60;;;3.50;99.90;;;;;;4981592;28;20060;-82
2021/12/10 06:27:49;;;;;;;32.75;21.15;;;2.80;99.90;;;;;;5000174;28;20484;-86
2021/12/10 06:30:18;;;;;;;31.15;21.60;;;3.40;99.90;;;;;;5005628;28;20104;-84
2021/12/10 06:32:46;;;;;;;31.63;21.05;;;3.60;99.90;;;;;;5019727;28;20076;-84
2021/12/10 06:35:13;;;;;;;36.22;21.63;;;2.70;99.90;;;;;;5021454;28;20171;-83
2021/12/10 06:37:41;;;;;;;34.33;21.58;;;3.70;99.90;;;;;;5030460;28;20036;-83
2021/12/10 06:40:10;;;;;;;37.60;22.27;;;2.70;99.90;;;;;;5007689;28;20112;-82
2021/12/10 06:42:36;;;;;;;37.45;21.70;;;2.70;99.90;;;;;;5002101;28;20049;-82
2021/12/10 06:45:08;;;;;;;38.20;22.02;;;2.70;99.90;;;;;;4998609;28;20054;-83
2021/12/10 06:47:35;;;;;;;29.42;20.45;;;2.70;99.90;;;;;;5010831;28;20126;-82
2021/12/10 06:50:03;;;;;;;30.55;20.70;;;2.50;99.90;;;;;;5016197;28;20045;-85
2021/12/10 06:52:28;;;;;;;33.38;22.05;;;2.70;99.90;;;;;;5011613;28;20083;-80
2021/12/10 06:54:54;;;;;;;30.70;19.35;;;2.70;99.90;;;;;;5017070;28;20073;-81
2021/12/10 06:57:20;;;;;;;38.95;20.05;;;2.60;99.90;;;;;;4988911;28;20527;-83
2021/12/10 06:59:45;;;;;;;31.20;19.70;;;3.50;99.90;;;;;;4995275;28;20058;-85
2021/12/10 07:02:12;;;;;;;28.90;18.77;;;3.50;99.90;;;;;;5009839;28;20400;-81
2021/12/10 07:04:41;;;;;;;24.38;15.55;;;3.60;99.90;;;;;;4993855;28;20056;-82
2021/12/10 07:07:08;;;;;;;27.17;17.58;;;3.70;99.90;;;;;;4997266;28;20176;-84
2021/12/10 07:09:35;;;;;;;28.27;17.50;;;2.70;99.90;;;;;;5012741;28;20049;-82
2021/12/10 07:12:01;;;;;;;25.40;15.98;;;3.50;99.90;;;;;;5027917;28;20103;-78
2021/12/10 07:14:27;;;;;;;24.73;14.38;;;2.70;99.90;;;;;;5010741;28;20052;-78
2021/12/10 07:16:53;;;;;;;28.95;16.35;;;2.70;99.90;;;;;;5012617;28;20046;-83
2021/12/10 07:19:19;;;;;;;27.05;16.48;;;2.70;99.90;;;;;;5012746;28;20067;-78
2021/12/10 07:21:45;;;;;;;25.75;15.90;;;3.40;99.90;;;;;;4994567;28;20110;-83
2021/12/10 07:24:14;;;;;;;23.30;15.90;;;2.80;99.90;;;;;;5043360;28;20574;-81
2021/12/10 07:26:40;;;;;;;20.45;14.30;;;2.50;99.90;;;;;;5020239;28;20425;-80
2021/12/10 07:29:07;;;;;;;22.85;15.65;;;2.50;99.90;;;;;;5024288;28;20514;-84
2021/12/10 07:31:35;;;;;;;22.58;15.18;;;3.20;99.90;;;;;;5012271;28;20045;-85
2021/12/10 07:34:05;;;;;;;24.10;13.77;;;2.40;99.90;;;;;;5028089;28;20468;-83
2021/12/10 07:36:32;;;;;;;20.77;12.65;;;2.40;99.90;;;;;;5012045;28;20099;-83
2021/12/10 07:38:58;;;;;;;23.45;14.35;;;2.30;99.90;;;;;;5012112;28;20451;-82
2021/12/10 07:41:25;;;;;;;25.30;14.80;;;2.30;99.90;;;;;;5011107;28;20183;-80
2021/12/10 07:43:51;;;;;;;25.38;14.27;;;2.30;99.90;;;;;;5029116;28;20388;-83
2021/12/10 07:46:17;;;;;;;25.40;13.73;;;3.30;99.90;;;;;;5012059;28;20046;-81
2021/12/10 07:48:43;;;;;;;25.10;15.02;;;2.30;99.90;;;;;;5025938;28;20061;-83
2021/12/10 07:51:15;;;;;;;24.83;15.60;;;2.30;99.90;;;;;;5029831;28;20033;-75
2021/12/10 07:53:42;;;;;;;27.30;15.82;;;2.20;99.90;;;;;;5011536;28;20445;-80
2021/12/10 07:56:10;;;;;;;22.48;14.77;;;2.20;99.90;;;;;;5011961;28;20502;-77
2021/12/10 07:58:40;;;;;;;24.55;15.35;;;2.20;99.90;;;;;;5013649;28;20132;-77
2021/12/10 08:01:08;;;;;;;26.15;15.77;;;2.30;99.90;;;;;;5009359;28;20499;-79
2021/12/10 08:03:34;;;;;;;21.35;14.00;;;2.10;99.90;;;;;;5010355;28;20060;-77
2021/12/10 08:06:00;;;;;;;24.40;15.35;;;2.10;99.90;;;;;;5013166;28;20041;-75
2021/12/10 08:08:26;;;;;;;22.10;14.07;;;2.10;99.90;;;;;;5003371;28;20461;-79
2021/12/10 08:10:51;;;;;;;24.20;14.30;;;2.10;99.90;;;;;;5003016;28;20037;-77
2021/12/10 08:13:22;;;;;;;24.60;14.15;;;2.10;99.90;;;;;;4986701;28;20099;-80
2021/12/10 08:15:48;;;;;;;22.45;14.45;;;2.00;99.90;;;;;;5017385;28;20041;-77
2021/12/10 08:18:14;;;;;;;21.05;12.73;;;2.00;99.90;;;;;;5018471;28;20186;-76
2021/12/10 08:20:42;;;;;;;28.05;12.93;;;2.00;99.90;;;;;;5003898;28;20045;-78
2021/12/10 08:23:08;;;;;;;20.15;13.15;;;2.10;99.90;;;;;;5002070;28;20049;-78
2021/12/10 08:25:35;;;;;;;24.95;13.00;;;2.00;99.90;;;;;;4980336;28;20046;-78
2021/12/10 08:28:02;;;;;;;20.75;13.27;;;2.30;99.90;;;;;;5007902;28;20050;-81
2021/12/10 08:30:32;;;;;;;21.27;11.95;;;2.10;99.90;;;;;;4998175;28;20061;-76
2021/12/10 08:32:59;;;;;;;23.98;12.43;;;2.10;99.90;;;;;;4997146;28;20347;-77
2021/12/10 08:35:29;;;;;;;24.30;12.32;;;2.10;99.90;;;;;;4992387;28;20128;-75
2021/12/10 08:37:58;;;;;;;17.85;12.32;;;2.20;99.90;;;;;;4996024;28;20045;-76
2021/12/10 08:40:30;;;;;;;20.92;12.63;;;2.20;99.90;;;;;;4998805;28;20046;-76
2021/12/10 08:42:56;;;;;;;18.83;11.70;;;2.20;99.90;;;;;;4999220;28;20037;-77
2021/12/10 08:45:25;;;;;;;22.23;12.68;;;2.20;99.90;;;;;;5001625;28;20347;-80
2021/12/10 08:47:52;;;;;;;19.50;11.57;;;2.50;99.90;;;;;;5000180;28;20050;-78
2021/12/10 08:50:23;;;;;;;16.83;10.50;;;2.20;99.90;;;;;;5021139;28;20214;-78
2021/12/10 08:52:58;;;;;;;17.27;10.75;;;2.30;99.90;;;;;;5000222;28;20056;-81
2021/12/10 08:55:26;;;;;;;15.63;10.27;;;2.30;99.90;;;;;;4997152;28;20041;-80
2021/12/10 08:57:54;;;;;;;17.73;11.07;;;2.40;99.90;;;;;;4997442;28;20069;-80
2021/12/10 09:00:21;;;;;;;19.38;10.35;;;2.40;99.90;;;;;;4996554;28;20064;-80
2021/12/10 09:02:50;;;;;;;21.05;10.73;;;2.50;99.90;;;;;;4999954;28;20393;-81
2021/12/10 09:05:16;;;;;;;17.02;10.65;;;2.40;99.90;;;;;;4991499;28;20042;-79
2021/12/10 09:07:45;;;;;;;17.77;10.52;;;2.50;99.90;;;;;;4997953;28;20401;-79
2021/12/10 09:10:15;;;;;;;15.07;9.77;;;2.50;99.90;;;;;;5012263;28;20067;-82
2021/12/10 09:12:41;;;;;;;18.50;10.63;;;2.50;99.90;;;;;;5010659;28;20068;-78
2021/12/10 09:15:11;;;;;;;13.90;9.18;;;2.50;99.90;;;;;;4993139;28;20064;-79
2021/12/10 09:17:40;;;;;;;14.20;9.32;;;2.50;99.90;;;;;;4995139;28;20092;-79
2021/12/10 09:20:14;;;;;;;16.77;8.70;;;2.60;99.90;;;;;;5009989;28;20077;-81
2021/12/10 09:22:42;;;;;;;15.52;9.60;;;2.70;99.90;;;;;;4994291;28;20179;-79
2021/12/10 09:25:09;;;;;;;14.23;8.88;;;2.70;99.90;;;;;;5014835;28;20116;-79
2021/12/10 09:27:36;;;;;;;14.05;8.73;;;2.70;99.90;;;;;;4994957;28;20144;-81
2021/12/10 09:30:05;;;;;;;18.08;9.63;;;2.70;99.90;;;;;;5033008;28;20037;-78
2021/12/10 09:32:32;;;;;;;12.20;8.15;;;2.80;99.90;;;;;;5014438;28;20109;-82
2021/12/10 09:35:07;;;;;;;13.80;7.97;;;2.80;99.90;;;;;;4999317;28;20044;-79
2021/12/10 09:37:35;;;;;;;14.05;8.57;;;2.80;99.90;;;;;;4996103;28;20484;-77
2021/12/10 09:40:07;;;;;;;13.98;8.40;;;2.90;99.90;;;;;;5015849;28;20052;-74
2021/12/10 09:42:33;;;;;;;16.30;9.27;;;3.00;99.90;;;;;;5013223;28;20049;-76
2021/12/10 09:44:59;;;;;;;13.07;8.68;;;3.00;99.90;;;;;;5016378;28;20358;-75
2021/12/10 09:47:24;;;;;;;15.52;8.63;;;3.00;99.90;;;;;;5032458;28;20449;-75
2021/12/10 09:49:54;;;;;;;13.00;8.50;;;3.10;99.90;;;;;;5016084;28;20128;-76
2021/12/10 09:52:24;;;;;;;16.55;8.88;;;3.20;99.90;;;;;;5016578;28;20057;-75
2021/12/10 09:54:49;;;;;;;12.05;7.93;;;3.10;99.90;;;;;;5015897;28;20053;-77
2021/12/10 09:57:20;;;;;;;18.92;8.57;;;3.20;99.90;;;;;;5016713;28;20128;-79
2021/12/10 09:59:51;;;;;;;13.15;8.85;;;3.20;99.90;;;;;;4997278;28;20468;-81
2021/12/10 10:02:18;;;;;;;13.65;7.80;;;3.30;99.90;;;;;;4999379;28;20077;-81
2021/12/10 10:04:49;;;;;;;15.52;8.48;;;3.50;99.90;;;;;;5015862;28;20045;-80
2021/12/10 10:07:18;;;;;;;13.73;8.27;;;4.10;99.90;;;;;;5010344;28;20045;-80
2021/12/10 10:09:49;;;;;;;15.15;8.43;;;3.40;99.90;;;;;;5001833;28;20041;-81
2021/12/10 10:12:24;;;;;;;14.73;7.43;;;3.80;99.90;;;;;;5006066;28;20049;-80
2021/12/10 10:14:51;;;;;;;16.17;7.30;;;3.50;99.90;;;;;;5009710;28;20426;-81
2021/12/10 10:17:19;;;;;;;13.07;7.97;;;3.50;99.90;;;;;;5003245;28;20029;-81
2021/12/10 10:19:49;;;;;;;15.23;7.82;;;3.60;99.90;;;;;;5000319;28;20351;-81
2021/12/10 10:23:00;;;;;;;;;;;;;;;;;;;;;
2021/12/10 10:30:12;;;;;;;17.08;7.47;;;3.70;99.90;;;;;;4954012;28;20049;-83
2021/12/10 10:32:43;;;;;;;13.65;7.82;;;3.40;99.90;;;;;;4931604;29;20080;-78
2021/12/10 10:35:17;;;;;;;11.68;7.00;;;4.20;99.90;;;;;;4934430;28;20065;-79
2021/12/10 10:37:44;;;;;;;15.90;7.00;;;4.00;99.90;;;;;;4936168;29;20214;-77
2021/12/10 10:40:14;;;;;;;12.60;7.40;;;4.00;99.90;;;;;;4921246;29;20047;-78
2021/12/10 10:42:41;;;;;;;12.88;7.15;;;4.10;99.90;;;;;;4919277;28;20055;-82
2021/12/10 10:45:11;;;;;;;11.70;7.38;;;4.20;99.90;;;;;;4918313;29;20051;-77
2021/12/10 10:47:36;;;;;;;10.48;6.50;;;4.10;99.90;;;;;;4946125;29;20166;-78
2021/12/10 10:50:13;;;;;;;10.60;7.63;;;4.20;99.90;;;;;;4933434;29;20154;-75
2021/12/10 10:52:43;;;;;;;10.23;6.75;;;4.30;99.90;;;;;;4932990;29;20051;-76
2021/12/10 10:55:12;;;;;;;10.25;6.20;;;4.30;99.90;;;;;;4977779;28;20470;-74
2021/12/10 10:57:48;;;;;;;12.32;6.55;;;4.30;99.90;;;;;;4991967;28;20049;-74
2021/12/10 11:00:29;;;;;;;11.77;6.68;;;4.30;99.90;;;;;;5003014;28;20069;-74
2021/12/10 11:03:01;;;;;;;13.18;6.18;;;4.30;99.90;;;;;;4991812;28;20584;-75
2021/12/10 11:05:28;;;;;;;13.73;5.93;;;4.30;99.90;;;;;;5001180;28;20046;-77
2021/12/10 11:07:59;;;;;;;10.68;6.20;;;4.60;99.90;;;;;;5018821;28;20136;-76
2021/12/10 11:10:36;;;;;;;11.60;6.22;;;4.40;99.90;;;;;;5010111;28;20456;-76
2021/12/10 11:13:20;;;;;;;15.57;6.65;;;4.40;99.90;;;;;;5009433;28;20045;-76
2021/12/10 11:16:15;;;;;;;11.13;6.18;;;4.50;99.90;;;;;;5014004;28;20071;-76
2021/12/10 11:18:46;;;;;;;10.80;6.63;;;4.50;99.90;;;;;;4992019;28;20057;-78
2021/12/10 11:21:13;;;;;;;9.32;5.80;;;4.50;99.90;;;;;;5011779;28;20149;-77
2021/12/10 11:23:42;;;;;;;11.38;6.22;;;4.50;99.90;;;;;;5011824;28;20480;-76
2021/12/10 11:26:10;;;;;;;14.82;5.82;;;4.60;99.90;;;;;;5010118;28;20104;-78
2021/12/10 11:28:41;;;;;;;10.90;5.65;;;4.60;99.90;;;;;;5008798;28;20441;-79
2021/12/10 11:31:18;;;;;;;11.18;6.13;;;4.50;99.90;;;;;;5010376;28;20465;-81
2021/12/10 11:33:49;;;;;;;10.10;5.38;;;4.60;99.90;;;;;;4993997;28;20461;-80
2021/12/10 11:36:22;;;;;;;9.93;5.90;;;4.90;99.90;;;;;;5011556;28;20049;-81
2021/12/10 11:38:56;;;;;;;12.77;5.90;;;4.60;99.90;;;;;;5009992;28;20103;-80
2021/12/10 11:41:27;;;;;;;7.80;4.60;;;4.60;99.90;;;;;;5025615;28;20111;-77
2021/12/10 11:49:41;;;;;;;10.32;5.10;;;4.70;99.90;;;;;;5009155;28;20042;-77
2021/12/10 11:52:10;;;;;;;11.85;5.50;;;4.80;99.90;;;;;;5005037;28;20037;-79
2021/12/10 11:54:42;;;;;;;8.85;5.10;;;4.80;99.90;;;;;;5004545;28;20069;-85
2021/12/10 11:57:24;;;;;;;9.18;5.22;;;4.90;99.90;;;;;;5000693;28;20072;-82
2021/12/10 12:00:44;;;;;;;;;;;;;;;;;;;;;
2021/12/10 12:03:13;;;;;;;9.48;4.57;;;4.30;99.90;;;;;;4947539;28;20040;-79
2021/12/10 12:05:42;;;;;;;8.77;4.32;;;6.00;99.90;;;;;;4924675;28;20463;-83
2021/12/10 12:08:14;;;;;;;7.60;4.38;;;5.50;99.90;;;;;;4931958;29;20047;-83
2021/12/10 12:10:45;;;;;;;12.50;5.13;;;5.20;99.90;;;;;;4933590;29;20051;-81
2021/12/10 12:13:35;;;;;;;14.00;4.60;;;5.20;99.90;;;;;;4932708;28;20051;-78
2021/12/10 12:16:14;;;;;;;7.03;4.50;;;5.10;99.90;;;;;;4948936;29;20054;-79
2021/12/10 12:18:52;;;;;;;9.20;4.45;;;5.10;99.90;;;;;;4930908;28;20435;-79
2021/12/10 12:27:15;;;;;;;8.07;4.32;;;5.00;99.90;;;;;;4950271;28;20083;-80
2021/12/10 12:29:56;;;;;;;6.97;4.15;;;5.40;99.90;;;;;;4915891;29;20486;-77
2021/12/10 12:32:31;;;;;;;8.20;4.22;;;5.00;99.90;;;;;;4948780;28;20040;-80
2021/12/10 12:34:59;;;;;;;;;;;5.00;99.90;;;;;;4928580;28;20059;-78
2021/12/10 12:37:26;;;;;;;10.07;4.43;;;5.00;99.90;;;;;;4934770;28;19923;-78
2021/12/10 12:39:57;;;;;;;6.53;3.88;;;5.00;99.90;;;;;;4964571;28;20543;-79
2021/12/10 12:42:41;;;;;;;8.43;4.72;;;5.00;99.90;;;;;;5005553;28;20094;-81
2021/12/10 12:45:14;;;;;;;11.35;4.82;;;5.10;99.90;;;;;;4998300;28;20093;-80
2021/12/10 12:47:49;;;;;;;9.73;4.05;;;5.00;99.90;;;;;;5010244;28;20136;-80
2021/12/10 12:50:21;;;;;;;7.70;3.78;;;5.00;99.90;;;;;;5009861;28;20461;-82
2021/12/10 12:52:53;;;;;;;10.35;4.25;;;5.10;99.90;;;;;;5010696;28;20404;-81
2021/12/10 12:55:37;;;;;;;6.72;3.88;;;4.90;99.90;;;;;;5009782;28;20045;-81
2021/12/10 12:58:06;;;;;;;8.50;3.97;;;4.80;99.90;;;;;;5009027;28;20037;-82
2021/12/10 13:00:57;;;;;;;7.13;3.40;;;5.00;99.90;;;;;;5004287;28;20041;-82
2021/12/10 13:03:26;;;;;;;7.30;3.95;;;4.80;99.90;;;;;;4991970;28;20128;-81
2021/12/10 13:06:25;;;;;;;10.38;4.80;;;5.60;99.90;;;;;;5008316;28;20045;-82
2021/12/10 13:09:24;;;;;;;9.52;4.10;;;4.70;99.90;;;;;;5013909;28;20064;-80
2021/12/10 13:12:02;;;;;;;12.20;3.90;;;4.60;99.90;;;;;;4990929;28;20046;-81
2021/12/10 13:14:38;;;;;;;8.98;4.05;;;5.30;99.90;;;;;;4988653;28;20049;-81
2021/12/10 13:17:12;;;;;;;12.82;5.07;;;4.60;99.90;;;;;;4991934;28;20061;-80
2021/12/10 13:19:38;;;;;;;9.27;3.63;;;5.40;99.90;;;;;;5008231;28;20050;-81
2021/12/10 13:22:25;;;;;;;14.90;4.63;;;4.60;99.90;;;;;;5004243;28;20054;-82
2021/12/10 13:24:54;;;;;;;12.23;4.38;;;5.30;99.90;;;;;;4988621;28;20046;-80
2021/12/10 13:27:23;;;;;;;7.18;4.03;;;4.60;99.90;;;;;;4993018;28;20244;-77
2021/12/10 13:29:49;;;;;;;10.25;4.10;;;4.60;99.90;;;;;;4992930;28;20042;-78